sensor_id;sensor_type;location;lat;lon;timestamp;pressure;altitude;pressure_sealevel;temperature;humidity
4617;BME280;2321;42.704;23.384;2022-11-20T00:01:16;94745.94;;;15.50;100.00
4617;BME280;2321;42.704;23.384;2022-11-20T00:03:44;94741.31;;;15.45;100.00
4617;BME280;2321;42.704;23.384;2022-11-20T00:06:14;94737.94;;;15.38;100.00
4617;BME280;2321;42.704;23.384;2022-11-20T00:08:41;94738.75;;;15.38;100.00
4617;BME280;2321;42.704;23.384;2022-11-20T00:11:09;94725.34;;;15.38;100.00
4617;BME280;2321;42.704;23.384;2022-11-20T00:13:37;94725.88;;;15.52;100.00
4617;BME280;2321;42.704;23.384;2022-11-20T00:16:06;94719.97;;;15.67;100.00
4617;BME280;2321;42.704;23.384;2022-11-20T00:18:34;94722.28;;;15.76;100.00
4617;BME280;2321;42.704;23.384;2022-11-20T00:21:02;94722.50;;;15.92;100.00
4617;BME280;2321;42.704;23.384;2022-11-20T00:23:30;94722.31;;;16.10;100.00
4617;BME280;2321;42.704;23.384;2022-11-20T00:26:01;94731.91;;;16.06;100.00
4617;BME280;2321;42.704;23.384;2022-11-20T00:28:29;94720.78;;;16.15;100.00
4617;BME280;2321;42.704;23.384;2022-11-20T00:31:01;94713.53;;;16.15;100.00
4617;BME280;2321;42.704;23.384;2022-11-20T00:33:28;94710.91;;;16.20;100.00
4617;BME280;2321;42.704;23.384;2022-11-20T00:35:59;94743.31;;;16.14;100.00
4617;BME280;2321;42.704;23.384;2022-11-20T00:38:26;94724.69;;;16.24;100.00
4617;BME280;2321;42.704;23.384;2022-11-20T00:40:56;94725.81;;;16.28;100.00
4617;BME280;2321;42.704;23.384;2022-11-20T00:43:24;94735.06;;;16.38;100.00
4617;BME280;2321;42.704;23.384;2022-11-20T00:45:56;94724.25;;;16.32;100.00
4617;BME280;2321;42.704;23.384;2022-11-20T00:48:23;94722.47;;;16.21;100.00
4617;BME280;2321;42.704;23.384;2022-11-20T00:50:50;94739.16;;;16.23;100.00
4617;BME280;2321;42.704;23.384;2022-11-20T00:53:17;94741.03;;;16.40;100.00
4617;BME280;2321;42.704;23.384;2022-11-20T00:55:52;94728.81;;;16.49;100.00
4617;BME280;2321;42.704;23.384;2022-11-20T00:58:22;94703.16;;;16.59;100.00
4617;BME280;2321;42.704;23.384;2022-11-20T01:00:49;94726.91;;;16.67;100.00
4617;BME280;2321;42.704;23.384;2022-11-20T01:03:16;94745.16;;;16.65;100.00
4617;BME280;2321;42.704;23.384;2022-11-20T01:05:43;94735.78;;;16.68;100.00
4617;BME280;2321;42.704;23.384;2022-11-20T01:08:10;94686.59;;;16.67;100.00
4617;BME280;2321;42.704;23.384;2022-11-20T01:10:37;94707.41;;;16.77;100.00
4617;BME280;2321;42.704;23.384;2022-11-20T01:13:04;94728.03;;;16.71;100.00
4617;BME280;2321;42.704;23.384;2022-11-20T01:15:50;94721.66;;;16.77;100.00
4617;BME280;2321;42.704;23.384;2022-11-20T01:18:17;94710.03;;;16.72;100.00
4617;BME280;2321;42.704;23.384;2022-11-20T01:20:43;94706.84;;;16.97;100.00
4617;BME280;2321;42.704;23.384;2022-11-20T01:23:10;94712.56;;;17.24;100.00
4617;BME280;2321;42.704;23.384;2022-11-20T01:25:37;94712.53;;;17.46;96.92
4617;BME280;2321;42.704;23.384;2022-11-20T01:28:04;94673.47;;;17.71;90.65
4617;BME280;2321;42.704;23.384;2022-11-20T01:30:31;94690.41;;;18.00;83.77
4617;BME280;2321;42.704;23.384;2022-11-20T01:32:59;94681.88;;;18.13;82.57
4617;BME280;2321;42.704;23.384;2022-11-20T01:35:26;94687.97;;;18.31;85.85
4617;BME280;2321;42.704;23.384;2022-11-20T01:37:53;94690.13;;;18.34;87.00
4617;BME280;2321;42.704;23.384;2022-11-20T01:40:20;94691.53;;;18.37;87.89
4617;BME280;2321;42.704;23.384;2022-11-20T01:42:53;94688.25;;;18.35;86.39
4617;BME280;2321;42.704;23.384;2022-11-20T01:46:02;94690.31;;;18.22;88.81
4617;BME280;2321;42.704;23.384;2022-11-20T01:48:35;94662.81;;;18.20;91.36
4617;BME280;2321;42.704;23.384;2022-11-20T01:51:06;94674.06;;;18.12;92.16
4617;BME280;2321;42.704;23.384;2022-11-20T01:53:36;94689.13;;;18.07;92.19
4617;BME280;2321;42.704;23.384;2022-11-20T01:56:06;94694.72;;;18.01;92.83
4617;BME280;2321;42.704;23.384;2022-11-20T01:58:38;94699.56;;;17.99;90.63
4617;BME280;2321;42.704;23.384;2022-11-20T02:01:07;94686.09;;;17.99;93.74
4617;BME280;2321;42.704;23.384;2022-11-20T02:03:36;94680.09;;;17.91;95.14
4617;BME280;2321;42.704;23.384;2022-11-20T02:06:10;94684.41;;;17.92;94.59
4617;BME280;2321;42.704;23.384;2022-11-20T02:08:38;94685.22;;;17.88;94.58
4617;BME280;2321;42.704;23.384;2022-11-20T02:11:05;94697.06;;;17.92;91.09
4617;BME280;2321;42.704;23.384;2022-11-20T02:13:33;94693.22;;;17.82;92.13
4617;BME280;2321;42.704;23.384;2022-11-20T02:16:11;94671.66;;;17.77;91.30
4617;BME280;2321;42.704;23.384;2022-11-20T02:18:40;94677.34;;;17.81;91.15
4617;BME280;2321;42.704;23.384;2022-11-20T02:21:11;94692.97;;;17.84;90.16
4617;BME280;2321;42.704;23.384;2022-11-20T02:24:00;94689.50;;;17.89;88.03
4617;BME280;2321;42.704;23.384;2022-11-20T02:26:29;94672.50;;;17.83;91.32
4617;BME280;2321;42.704;23.384;2022-11-20T02:28:58;94690.88;;;17.91;92.10
4617;BME280;2321;42.704;23.384;2022-11-20T02:31:25;94700.78;;;17.85;88.58
4617;BME280;2321;42.704;23.384;2022-11-20T02:33:55;94691.38;;;17.88;90.17
4617;BME280;2321;42.704;23.384;2022-11-20T02:36:24;94686.00;;;17.88;83.74
4617;BME280;2321;42.704;23.384;2022-11-20T02:38:52;94684.88;;;18.17;75.26
4617;BME280;2321;42.704;23.384;2022-11-20T02:41:21;94687.28;;;18.51;71.88
4617;BME280;2321;42.704;23.384;2022-11-20T02:43:48;94711.66;;;18.67;73.98
4617;BME280;2321;42.704;23.384;2022-11-20T02:46:15;94733.53;;;18.76;74.95
4617;BME280;2321;42.704;23.384;2022-11-20T02:48:42;94706.28;;;18.72;71.97
4617;BME280;2321;42.704;23.384;2022-11-20T02:51:09;94701.69;;;18.73;70.96
4617;BME280;2321;42.704;23.384;2022-11-20T02:53:36;94721.72;;;18.82;69.08
4617;BME280;2321;42.704;23.384;2022-11-20T02:56:03;94722.56;;;18.93;67.86
4617;BME280;2321;42.704;23.384;2022-11-20T02:58:31;94744.72;;;19.01;68.44
4617;BME280;2321;42.704;23.384;2022-11-20T03:00:58;94748.47;;;19.00;69.06
4617;BME280;2321;42.704;23.384;2022-11-20T03:03:25;94743.91;;;19.05;66.88
4617;BME280;2321;42.704;23.384;2022-11-20T03:05:52;94748.25;;;19.12;67.99
4617;BME280;2321;42.704;23.384;2022-11-20T03:08:19;94751.78;;;19.17;67.94
4617;BME280;2321;42.704;23.384;2022-11-20T03:10:46;94762.34;;;19.19;67.87
4617;BME280;2321;42.704;23.384;2022-11-20T03:13:13;94758.88;;;19.24;68.48
4617;BME280;2321;42.704;23.384;2022-11-20T03:15:41;94760.75;;;19.23;69.33
4617;BME280;2321;42.704;23.384;2022-11-20T03:18:08;94765.28;;;19.17;69.22
4617;BME280;2321;42.704;23.384;2022-11-20T03:20:35;94759.63;;;19.19;70.79
4617;BME280;2321;42.704;23.384;2022-11-20T03:23:02;94765.91;;;19.30;68.41
4617;BME280;2321;42.704;23.384;2022-11-20T03:25:29;94764.03;;;19.31;69.57
4617;BME280;2321;42.704;23.384;2022-11-20T03:27:56;94762.16;;;19.31;71.81
4617;BME280;2321;42.704;23.384;2022-11-20T03:30:23;94778.81;;;19.23;71.31
4617;BME280;2321;42.704;23.384;2022-11-20T03:32:54;94789.56;;;19.17;70.41
4617;BME280;2321;42.704;23.384;2022-11-20T03:35:21;94786.06;;;19.17;68.82
4617;BME280;2321;42.704;23.384;2022-11-20T03:37:48;94784.50;;;19.21;70.93
4617;BME280;2321;42.704;23.384;2022-11-20T03:40:15;94777.50;;;19.25;69.83
4617;BME280;2321;42.704;23.384;2022-11-20T03:42:42;94778.03;;;19.22;69.76
4617;BME280;2321;42.704;23.384;2022-11-20T03:45:11;94785.81;;;19.19;69.62
4617;BME280;2321;42.704;23.384;2022-11-20T03:47:38;94782.84;;;19.20;70.10
4617;BME280;2321;42.704;23.384;2022-11-20T03:50:08;94783.63;;;19.15;72.17
4617;BME280;2321;42.704;23.384;2022-11-20T03:52:35;94788.75;;;19.17;74.19
4617;BME280;2321;42.704;23.384;2022-11-20T03:55:02;94786.00;;;19.07;76.45
4617;BME280;2321;42.704;23.384;2022-11-20T03:57:29;94774.06;;;18.92;73.33
4617;BME280;2321;42.704;23.384;2022-11-20T03:59:56;94768.47;;;19.04;68.76
4617;BME280;2321;42.704;23.384;2022-11-20T04:02:23;94758.25;;;19.11;70.46
4617;BME280;2321;42.704;23.384;2022-11-20T04:04:50;94772.31;;;19.13;71.08
4617;BME280;2321;42.704;23.384;2022-11-20T04:07:18;94767.97;;;19.12;73.59
4617;BME280;2321;42.704;23.384;2022-11-20T04:09:45;94770.66;;;19.07;71.34
4617;BME280;2321;42.704;23.384;2022-11-20T04:12:12;94773.06;;;19.03;70.00
4617;BME280;2321;42.704;23.384;2022-11-20T04:14:39;94782.47;;;19.01;70.28
4617;BME280;2321;42.704;23.384;2022-11-20T04:17:06;94784.91;;;19.02;70.91
4617;BME280;2321;42.704;23.384;2022-11-20T04:19:33;94788.16;;;19.04;71.95
4617;BME280;2321;42.704;23.384;2022-11-20T04:22:00;94793.28;;;19.06;70.43
4617;BME280;2321;42.704;23.384;2022-11-20T04:24:28;94775.69;;;18.93;73.10
4617;BME280;2321;42.704;23.384;2022-11-20T04:26:55;94790.84;;;19.04;74.25
4617;BME280;2321;42.704;23.384;2022-11-20T04:29:22;94793.00;;;19.02;73.62
4617;BME280;2321;42.704;23.384;2022-11-20T04:31:49;94792.97;;;18.92;76.14
4617;BME280;2321;42.704;23.384;2022-11-20T04:34:16;94787.22;;;18.83;71.08
4617;BME280;2321;42.704;23.384;2022-11-20T04:36:43;94784.50;;;18.83;71.49
4617;BME280;2321;42.704;23.384;2022-11-20T04:39:13;94783.97;;;18.81;71.94
4617;BME280;2321;42.704;23.384;2022-11-20T04:41:43;94788.03;;;18.83;71.56
4617;BME280;2321;42.704;23.384;2022-11-20T04:44:10;94792.66;;;18.88;71.46
4617;BME280;2321;42.704;23.384;2022-11-20T04:46:38;94797.53;;;18.91;71.46
4617;BME280;2321;42.704;23.384;2022-11-20T04:49:06;94786.19;;;18.89;72.03
4617;BME280;2321;42.704;23.384;2022-11-20T04:51:34;94777.56;;;18.92;72.25
4617;BME280;2321;42.704;23.384;2022-11-20T04:54:01;94767.88;;;18.97;72.52
4617;BME280;2321;42.704;23.384;2022-11-20T04:56:28;94764.66;;;18.94;70.32
4617;BME280;2321;42.704;23.384;2022-11-20T04:59:00;94768.13;;;18.90;71.01
4617;BME280;2321;42.704;23.384;2022-11-20T05:01:27;94758.72;;;18.98;71.16
4617;BME280;2321;42.704;23.384;2022-11-20T05:03:54;94764.94;;;18.98;71.57
4617;BME280;2321;42.704;23.384;2022-11-20T05:06:21;94761.66;;;18.96;72.44
4617;BME280;2321;42.704;23.384;2022-11-20T05:08:48;94760.84;;;18.95;73.31
4617;BME280;2321;42.704;23.384;2022-11-20T05:11:17;94745.78;;;18.94;73.90
4617;BME280;2321;42.704;23.384;2022-11-20T05:13:44;94748.97;;;18.91;74.59
4617;BME280;2321;42.704;23.384;2022-11-20T05:16:14;94738.66;;;18.83;73.97
4617;BME280;2321;42.704;23.384;2022-11-20T05:18:42;94731.91;;;18.75;73.34
4617;BME280;2321;42.704;23.384;2022-11-20T05:21:10;94747.56;;;18.83;75.31
4617;BME280;2321;42.704;23.384;2022-11-20T05:23:37;94742.16;;;18.78;76.89
4617;BME280;2321;42.704;23.384;2022-11-20T05:26:05;94739.47;;;18.78;78.35
4617;BME280;2321;42.704;23.384;2022-11-20T05:28:33;94740.50;;;18.72;81.80
4617;BME280;2321;42.704;23.384;2022-11-20T05:31:07;94736.16;;;18.66;86.67
4617;BME280;2321;42.704;23.384;2022-11-20T05:33:36;94741.22;;;18.57;89.61
4617;BME280;2321;42.704;23.384;2022-11-20T05:36:04;94743.31;;;18.49;91.72
4617;BME280;2321;42.704;23.384;2022-11-20T05:38:31;94751.94;;;18.46;92.83
4617;BME280;2321;42.704;23.384;2022-11-20T05:41:03;94759.97;;;18.41;94.50
4617;BME280;2321;42.704;23.384;2022-11-20T05:43:32;94763.16;;;18.33;96.14
4617;BME280;2321;42.704;23.384;2022-11-20T05:46:00;94763.91;;;18.28;97.10
4617;BME280;2321;42.704;23.384;2022-11-20T05:48:27;94768.22;;;18.24;97.61
4617;BME280;2321;42.704;23.384;2022-11-20T05:50:56;94759.53;;;18.22;97.29
4617;BME280;2321;42.704;23.384;2022-11-20T05:53:23;94757.09;;;18.20;96.18
4617;BME280;2321;42.704;23.384;2022-11-20T05:55:56;94757.09;;;18.20;95.48
4617;BME280;2321;42.704;23.384;2022-11-20T05:58:23;94763.88;;;18.23;94.53
4617;BME280;2321;42.704;23.384;2022-11-20T06:00:50;94765.53;;;18.24;93.29
4617;BME280;2321;42.704;23.384;2022-11-20T06:03:17;94767.94;;;18.25;92.20
4617;BME280;2321;42.704;23.384;2022-11-20T06:05:44;94766.38;;;18.29;91.37
4617;BME280;2321;42.704;23.384;2022-11-20T06:08:12;94766.38;;;18.29;91.38
4617;BME280;2321;42.704;23.384;2022-11-20T06:10:39;94762.63;;;18.31;91.18
4617;BME280;2321;42.704;23.384;2022-11-20T06:13:06;94777.69;;;18.32;91.16
4617;BME280;2321;42.704;23.384;2022-11-20T06:15:33;94773.41;;;18.31;91.43
4617;BME280;2321;42.704;23.384;2022-11-20T06:18:00;94777.44;;;18.33;90.31
4617;BME280;2321;42.704;23.384;2022-11-20T06:20:27;94764.53;;;18.35;89.48
4617;BME280;2321;42.704;23.384;2022-11-20T06:22:54;94765.34;;;18.36;90.19
4617;BME280;2321;42.704;23.384;2022-11-20T06:25:22;94764.53;;;18.35;89.86
4617;BME280;2321;42.704;23.384;2022-11-20T06:27:49;94761.59;;;18.37;88.08
4617;BME280;2321;42.704;23.384;2022-11-20T06:30:16;94772.38;;;18.37;88.06
4617;BME280;2321;42.704;23.384;2022-11-20T06:32:43;94770.22;;;18.39;88.04
4617;BME280;2321;42.704;23.384;2022-11-20T06:35:10;94773.72;;;18.39;88.60
4617;BME280;2321;42.704;23.384;2022-11-20T06:37:37;94769.94;;;18.40;89.52
4617;BME280;2321;42.704;23.384;2022-11-20T06:40:05;94770.47;;;18.37;90.41
4617;BME280;2321;42.704;23.384;2022-11-20T06:42:33;94767.00;;;18.42;90.10
4617;BME280;2321;42.704;23.384;2022-11-20T06:45:00;94778.84;;;18.41;89.09
4617;BME280;2321;42.704;23.384;2022-11-20T06:47:27;94776.44;;;18.45;88.78
4617;BME280;2321;42.704;23.384;2022-11-20T06:49:54;94770.25;;;18.44;86.49
4617;BME280;2321;42.704;23.384;2022-11-20T06:52:21;94772.44;;;18.47;85.14
4617;BME280;2321;42.704;23.384;2022-11-20T06:54:48;94765.47;;;18.51;86.17
4617;BME280;2321;42.704;23.384;2022-11-20T06:57:15;94776.25;;;18.51;86.62
4617;BME280;2321;42.704;23.384;2022-11-20T06:59:43;94778.13;;;18.51;84.71
4617;BME280;2321;42.704;23.384;2022-11-20T07:02:10;94780.53;;;18.53;84.63
4617;BME280;2321;42.704;23.384;2022-11-20T07:04:38;94773.53;;;18.51;84.88
4617;BME280;2321;42.704;23.384;2022-11-20T07:07:05;94778.94;;;18.51;84.16
4617;BME280;2321;42.704;23.384;2022-11-20T07:09:32;94787.84;;;18.52;83.34
4617;BME280;2321;42.704;23.384;2022-11-20T07:11:59;94780.31;;;18.54;83.40
4617;BME280;2321;42.704;23.384;2022-11-20T07:14:26;94774.91;;;18.54;83.18
4617;BME280;2321;42.704;23.384;2022-11-20T07:16:55;94790.22;;;18.48;82.79
4617;BME280;2321;42.704;23.384;2022-11-20T07:19:22;94791.84;;;18.49;82.65
4617;BME280;2321;42.704;23.384;2022-11-20T07:21:49;94800.50;;;18.51;82.68
4617;BME280;2321;42.704;23.384;2022-11-20T07:24:16;94795.41;;;18.55;83.09
4617;BME280;2321;42.704;23.384;2022-11-20T07:26:46;94786.72;;;18.48;82.30
4617;BME280;2321;42.704;23.384;2022-11-20T07:29:14;94804.56;;;18.54;82.12
4617;BME280;2321;42.704;23.384;2022-11-20T07:31:41;94804.88;;;18.58;80.92
4617;BME280;2321;42.704;23.384;2022-11-20T07:34:10;94789.75;;;18.57;80.34
4617;BME280;2321;42.704;23.384;2022-11-20T07:36:37;94788.38;;;18.54;79.40
4617;BME280;2321;42.704;23.384;2022-11-20T07:39:04;94790.03;;;18.55;79.96
4617;BME280;2321;42.704;23.384;2022-11-20T07:41:31;94792.72;;;18.55;79.74
4617;BME280;2321;42.704;23.384;2022-11-20T07:43:58;94811.59;;;18.55;79.00
4617;BME280;2321;42.704;23.384;2022-11-20T07:46:25;94804.28;;;18.56;79.06
4617;BME280;2321;42.704;23.384;2022-11-20T07:48:52;94807.56;;;18.58;78.92
4617;BME280;2321;42.704;23.384;2022-11-20T07:51:21;94808.34;;;18.58;78.37
4617;BME280;2321;42.704;23.384;2022-11-20T07:53:50;94810.78;;;18.60;78.80
4617;BME280;2321;42.704;23.384;2022-11-20T07:56:17;94812.44;;;18.61;78.88
4617;BME280;2321;42.704;23.384;2022-11-20T07:58:44;94804.34;;;18.61;79.22
4617;BME280;2321;42.704;23.384;2022-11-20T08:01:11;94807.81;;;18.61;80.02
4617;BME280;2321;42.704;23.384;2022-11-20T08:03:38;94811.63;;;18.60;80.82
4617;BME280;2321;42.704;23.384;2022-11-20T08:06:08;94803.78;;;18.59;81.29
4617;BME280;2321;42.704;23.384;2022-11-20T08:08:37;94802.94;;;18.58;81.38
4617;BME280;2321;42.704;23.384;2022-11-20T08:11:06;94799.97;;;18.55;80.14
4617;BME280;2321;42.704;23.384;2022-11-20T08:13:50;94805.41;;;18.60;80.28
4617;BME280;2321;42.704;23.384;2022-11-20T08:16:34;94795.97;;;18.62;81.28
4617;BME280;2321;42.704;23.384;2022-11-20T08:19:01;94794.34;;;18.61;81.59
4617;BME280;2321;42.704;23.384;2022-11-20T08:21:28;94797.31;;;18.60;81.33
4617;BME280;2321;42.704;23.384;2022-11-20T08:23:58;94800.25;;;18.58;81.31
4617;BME280;2321;42.704;23.384;2022-11-20T08:26:25;94798.13;;;18.60;80.16
4617;BME280;2321;42.704;23.384;2022-11-20T08:28:53;94787.66;;;18.64;80.11
4617;BME280;2321;42.704;23.384;2022-11-20T08:31:21;94777.97;;;18.68;79.36
4617;BME280;2321;42.704;23.384;2022-11-20T08:33:48;94779.06;;;18.67;78.60
4617;BME280;2321;42.704;23.384;2022-11-20T08:36:15;94772.50;;;18.58;78.27
4617;BME280;2321;42.704;23.384;2022-11-20T08:38:46;94789.22;;;18.60;77.58
4617;BME280;2321;42.704;23.384;2022-11-20T08:41:15;94791.13;;;18.65;77.50
4617;BME280;2321;42.704;23.384;2022-11-20T08:43:54;94777.13;;;18.68;79.13
4617;BME280;2321;42.704;23.384;2022-11-20T08:46:21;94781.97;;;18.60;79.18
4617;BME280;2321;42.704;23.384;2022-11-20T08:48:48;94804.09;;;18.68;79.65
4617;BME280;2321;42.704;23.384;2022-11-20T08:51:16;94807.78;;;18.51;86.33
4617;BME280;2321;42.704;23.384;2022-11-20T08:53:43;94822.50;;;18.43;88.56
4617;BME280;2321;42.704;23.384;2022-11-20T08:56:10;94843.44;;;18.31;92.51
4617;BME280;2321;42.704;23.384;2022-11-20T08:58:39;94849.84;;;18.24;97.28
4617;BME280;2321;42.704;23.384;2022-11-20T09:01:06;94847.28;;;18.12;100.00
4617;BME280;2321;42.704;23.384;2022-11-20T09:03:33;94826.69;;;18.01;100.00
4617;BME280;2321;42.704;23.384;2022-11-20T09:06:02;94832.84;;;17.96;100.00
4617;BME280;2321;42.704;23.384;2022-11-20T09:08:29;94832.28;;;17.94;100.00
4617;BME280;2321;42.704;23.384;2022-11-20T09:10:57;94831.16;;;17.90;100.00
4617;BME280;2321;42.704;23.384;2022-11-20T09:13:25;94832.72;;;17.85;100.00
4617;BME280;2321;42.704;23.384;2022-11-20T09:15:54;94811.88;;;17.75;100.00
4617;BME280;2321;42.704;23.384;2022-11-20T09:18:22;94834.03;;;17.83;100.00
4617;BME280;2321;42.704;23.384;2022-11-20T09:20:49;94848.28;;;17.78;100.00
4617;BME280;2321;42.704;23.384;2022-11-20T09:23:17;94828.84;;;17.76;100.00
4617;BME280;2321;42.704;23.384;2022-11-20T09:25:43;94832.13;;;17.78;100.00
4617;BME280;2321;42.704;23.384;2022-11-20T09:28:10;94831.03;;;17.79;100.00
4617;BME280;2321;42.704;23.384;2022-11-20T09:30:37;94847.50;;;17.60;100.00
4617;BME280;2321;42.704;23.384;2022-11-20T09:33:06;94854.09;;;17.47;100.00
4617;BME280;2321;42.704;23.384;2022-11-20T09:35:33;94845.53;;;17.50;100.00
4617;BME280;2321;42.704;23.384;2022-11-20T09:38:05;94838.78;;;17.48;100.00
4617;BME280;2321;42.704;23.384;2022-11-20T09:40:34;94828.19;;;17.41;100.00
4617;BME280;2321;42.704;23.384;2022-11-20T09:43:08;94827.94;;;17.42;100.00
4617;BME280;2321;42.704;23.384;2022-11-20T09:46:01;94826.81;;;17.38;100.00
4617;BME280;2321;42.704;23.384;2022-11-20T09:48:48;94814.09;;;17.34;100.00
4617;BME280;2321;42.704;23.384;2022-11-20T09:51:27;94806.03;;;17.34;100.00
4617;BME280;2321;42.704;23.384;2022-11-20T09:54:06;94807.41;;;17.36;100.00
4617;BME280;2321;42.704;23.384;2022-11-20T09:56:39;94808.97;;;17.32;100.00
4617;BME280;2321;42.704;23.384;2022-11-20T09:59:17;94799.78;;;17.28;100.00
4617;BME280;2321;42.704;23.384;2022-11-20T10:01:48;94802.63;;;17.21;100.00
4617;BME280;2321;42.704;23.384;2022-11-20T10:04:18;94800.34;;;17.13;100.00
4617;BME280;2321;42.704;23.384;2022-11-20T10:06:52;94805.91;;;17.06;100.00
4617;BME280;2321;42.704;23.384;2022-11-20T10:09:28;94806.34;;;16.97;100.00
4617;BME280;2321;42.704;23.384;2022-11-20T10:12:05;94801.69;;;16.93;100.00
4617;BME280;2321;42.704;23.384;2022-11-20T10:14:40;94793.00;;;16.85;100.00
4617;BME280;2321;42.704;23.384;2022-11-20T10:17:16;94779.00;;;16.83;100.00
4617;BME280;2321;42.704;23.384;2022-11-20T10:20:00;94777.59;;;16.81;100.00
4617;BME280;2321;42.704;23.384;2022-11-20T10:22:42;94771.19;;;16.82;100.00
4617;BME280;2321;42.704;23.384;2022-11-20T10:25:14;94754.00;;;16.83;100.00
4617;BME280;2321;42.704;23.384;2022-11-20T10:30:35;94721.38;;;16.57;100.00
4617;BME280;2321;42.704;23.384;2022-11-20T10:33:06;94725.53;;;16.47;100.00
4617;BME280;2321;42.704;23.384;2022-11-20T10:35:42;94727.19;;;16.48;100.00
4617;BME280;2321;42.704;23.384;2022-11-20T10:38:16;94754.34;;;16.34;100.00
4617;BME280;2321;42.704;23.384;2022-11-20T10:40:48;94755.19;;;16.35;100.00
4617;BME280;2321;42.704;23.384;2022-11-20T10:43:19;94764.63;;;16.38;100.00
4617;BME280;2321;42.704;23.384;2022-11-20T10:45:53;94759.91;;;16.45;100.00
4617;BME280;2321;42.704;23.384;2022-11-20T10:48:24;94749.75;;;16.30;100.00
4617;BME280;2321;42.704;23.384;2022-11-20T10:51:15;94770.25;;;16.36;100.00
4617;BME280;2321;42.704;23.384;2022-11-20T10:53:55;94773.34;;;16.28;100.00
4617;BME280;2321;42.704;23.384;2022-11-20T10:56:30;94782.03;;;16.18;100.00
4617;BME280;2321;42.704;23.384;2022-11-20T10:59:10;94764.56;;;16.15;100.00
4617;BME280;2321;42.704;23.384;2022-11-20T11:01:40;94763.66;;;16.09;100.00
4617;BME280;2321;42.704;23.384;2022-11-20T11:04:23;94782.03;;;16.18;100.00
4617;BME280;2321;42.704;23.384;2022-11-20T11:07:01;94776.81;;;16.11;100.00
4617;BME280;2321;42.704;23.384;2022-11-20T11:09:36;94794.81;;;16.10;100.00
4617;BME280;2321;42.704;23.384;2022-11-20T11:12:07;94816.13;;;16.17;100.00
4617;BME280;2321;42.704;23.384;2022-11-20T11:14:42;94822.34;;;16.18;100.00
4617;BME280;2321;42.704;23.384;2022-11-20T11:17:24;94817.63;;;15.96;100.00
4617;BME280;2321;42.704;23.384;2022-11-20T11:20:07;94829.22;;;15.43;100.00
4617;BME280;2321;42.704;23.384;2022-11-20T11:22:45;94826.16;;;15.10;100.00
4617;BME280;2321;42.704;23.384;2022-11-20T11:25:21;94832.00;;;14.95;100.00
4617;BME280;2321;42.704;23.384;2022-11-20T11:27:49;94830.31;;;14.81;100.00
4617;BME280;2321;42.704;23.384;2022-11-20T11:30:18;94819.25;;;14.66;100.00
4617;BME280;2321;42.704;23.384;2022-11-20T11:32:45;94805.75;;;14.60;100.00
4617;BME280;2321;42.704;23.384;2022-11-20T11:35:24;94821.44;;;14.45;100.00
4617;BME280;2321;42.704;23.384;2022-11-20T11:37:54;94834.28;;;14.43;100.00
4617;BME280;2321;42.704;23.384;2022-11-20T11:40:31;94828.19;;;14.35;100.00
4617;BME280;2321;42.704;23.384;2022-11-20T11:43:00;94826.78;;;14.33;100.00
4617;BME280;2321;42.704;23.384;2022-11-20T11:45:28;94818.19;;;14.31;100.00
4617;BME280;2321;42.704;23.384;2022-11-20T11:47:56;94824.47;;;14.24;100.00
4617;BME280;2321;42.704;23.384;2022-11-20T11:50:25;94812.00;;;14.18;100.00
4617;BME280;2321;42.704;23.384;2022-11-20T11:53:07;94825.63;;;14.16;100.00
4617;BME280;2321;42.704;23.384;2022-11-20T11:55:40;94822.59;;;14.25;100.00
4617;BME280;2321;42.704;23.384;2022-11-20T11:58:16;94830.38;;;14.26;100.00
4617;BME280;2321;42.704;23.384;2022-11-20T12:00:51;94822.13;;;14.28;100.00
4617;BME280;2321;42.704;23.384;2022-11-20T12:03:27;94810.03;;;14.25;100.00
4617;BME280;2321;42.704;23.384;2022-11-20T12:05:58;94791.38;;;14.19;100.00
4617;BME280;2321;42.704;23.384;2022-11-20T12:08:31;94804.06;;;14.23;100.00
4617;BME280;2321;42.704;23.384;2022-11-20T12:11:03;94796.75;;;14.19;100.00
4617;BME280;2321;42.704;23.384;2022-11-20T12:13:42;94822.72;;;14.30;100.00
4617;BME280;2321;42.704;23.384;2022-11-20T12:16:13;94818.84;;;14.26;100.00
4617;BME280;2321;42.704;23.384;2022-11-20T12:18:42;94817.38;;;14.30;100.00
4617;BME280;2321;42.704;23.384;2022-11-20T12:21:20;94804.78;;;14.31;100.00
4617;BME280;2321;42.704;23.384;2022-11-20T12:24:06;94815.25;;;14.32;100.00
4617;BME280;2321;42.704;23.384;2022-11-20T12:26:50;94808.66;;;14.35;100.00
4617;BME280;2321;42.704;23.384;2022-11-20T12:29:29;94827.88;;;14.44;100.00
4617;BME280;2321;42.704;23.384;2022-11-20T12:32:11;94808.41;;;14.36;100.00
4617;BME280;2321;42.704;23.384;2022-11-20T12:34:52;94838.88;;;14.23;100.00
4617;BME280;2321;42.704;23.384;2022-11-20T12:37:33;94827.44;;;14.04;100.00
4617;BME280;2321;42.704;23.384;2022-11-20T12:40:14;94817.81;;;14.15;100.00
4617;BME280;2321;42.704;23.384;2022-11-20T12:42:53;94789.28;;;14.21;100.00
4617;BME280;2321;42.704;23.384;2022-11-20T12:46:14;94765.91;;;14.28;100.00
4617;BME280;2321;42.704;23.384;2022-11-20T12:49:02;94730.19;;;14.22;100.00
4617;BME280;2321;42.704;23.384;2022-11-20T12:51:50;94741.22;;;14.26;100.00
4617;BME280;2321;42.704;23.384;2022-11-20T12:54:41;94765.09;;;14.27;100.00
4617;BME280;2321;42.704;23.384;2022-11-20T12:57:18;94769.16;;;14.30;100.00
4617;BME280;2321;42.704;23.384;2022-11-20T13:00:07;94778.22;;;14.29;100.00
4617;BME280;2321;42.704;23.384;2022-11-20T13:02:44;94772.88;;;14.29;100.00
4617;BME280;2321;42.704;23.384;2022-11-20T13:05:22;94768.94;;;14.32;100.00
4617;BME280;2321;42.704;23.384;2022-11-20T13:07:52;94761.84;;;14.37;100.00
4617;BME280;2321;42.704;23.384;2022-11-20T13:10:26;94752.28;;;14.42;100.00
4617;BME280;2321;42.704;23.384;2022-11-20T13:13:00;94742.38;;;14.30;100.00
4617;BME280;2321;42.704;23.384;2022-11-20T13:15:37;94741.56;;;14.05;100.00
4617;BME280;2321;42.704;23.384;2022-11-20T13:18:10;94746.22;;;13.98;100.00
4617;BME280;2321;42.704;23.384;2022-11-20T13:20:42;94722.91;;;13.87;100.00
4617;BME280;2321;42.704;23.384;2022-11-20T13:23:09;94718.91;;;13.77;100.00
4617;BME280;2321;42.704;23.384;2022-11-20T13:25:38;94687.16;;;13.69;100.00
4617;BME280;2321;42.704;23.384;2022-11-20T13:28:28;94717.97;;;13.71;100.00